Time;durP1;ratioP1;P1;durP2;ratioP2;P2;SDS_P1;SDS_P2;PMS_P1;PMS_P2;Temp;Humidity;BMP_temperature;BMP_pressure;BME280_temperature;BME280_humidity;BME280_pressure;Samples;Min_cycle;Max_cycle;Signal;HPM_P1;HPM_P2
2022/08/01 00:01:31;;;;;;;;;;;;;;;;;;;;;
2022/08/01 00:04:03;;;;;;;1.67;1.57;;;;;;;;;;7316230;19;162284;-16
2022/08/01 00:06:35;;;;;;;1.75;1.45;;;;;;;;;;7315986;19;163218;-16
2022/08/01 00:09:06;;;;;;;3.42;1.20;;;;;;;;;;7316143;19;154563;-17
2022/08/01 00:11:37;;;;;;;1.30;1.20;;;;;;;;;;7314368;19;154005;-16
2022/08/01 00:14:12;;;;;;;1.35;1.25;;;;;;;;;;7315471;19;162657;-16
2022/08/01 00:16:43;;;;;;;1.90;1.23;;;;;;;;;;7314964;19;163544;-16
2022/08/01 00:19:14;;;;;;;2.17;1.35;;;;;;;;;;7314698;19;154584;-17
2022/08/01 00:21:45;;;;;;;2.35;1.42;;;;;;;;;;7315716;19;154474;-16
2022/08/01 00:24:17;;;;;;;2.03;1.30;;;;;;;;;;7312826;19;162949;-17
2022/08/01 00:26:48;;;;;;;2.55;1.30;;;;;;;;;;7314140;19;162779;-17
2022/08/01 00:29:22;;;;;;;2.25;1.55;;;;;;;;;;7315091;19;154882;-16
2022/08/01 00:31:53;;;;;;;1.90;1.30;;;;;;;;;;7312190;19;154100;-17
2022/08/01 00:34:28;;;;;;;2.05;1.55;;;;;;;;;;7313508;19;134955;-17
2022/08/01 00:36:59;;;;;;;3.97;1.20;;;;;;;;;;7315926;19;162951;-17
2022/08/01 00:39:32;;;;;;;1.90;1.30;;;;;;;;;;7314693;19;154829;-17
2022/08/01 00:42:09;;;;;;;7.20;1.95;;;;;;;;;;7315195;19;153971;-16
2022/08/01 00:44:44;;;;;;;4.55;1.63;;;;;;;;;;7314345;19;162743;-16
2022/08/01 00:47:15;;;;;;;1.80;1.40;;;;;;;;;;7314406;19;162416;-16
2022/08/01 00:49:46;;;;;;;1.88;1.50;;;;;;;;;;7314869;19;154759;-17
2022/08/01 00:52:17;;;;;;;4.25;1.40;;;;;;;;;;7312890;19;153934;-16
2022/08/01 00:54:49;;;;;;;1.40;1.30;;;;;;;;;;7312055;19;162344;-16
2022/08/01 00:57:20;;;;;;;4.07;1.40;;;;;;;;;;7313438;19;162845;-17
2022/08/01 00:59:55;;;;;;;2.10;1.52;;;;;;;;;;7314381;19;154604;-16
2022/08/01 01:02:26;;;;;;;1.27;1.17;;;;;;;;;;7314635;19;154136;-16
2022/08/01 01:04:57;;;;;;;1.35;1.15;;;;;;;;;;7311501;19;162287;-16
2022/08/01 01:07:37;;;;;;;1.63;1.25;;;;;;;;;;7312903;19;162794;-17
2022/08/01 01:10:18;;;;;;;2.08;1.42;;;;;;;;;;7313234;19;155070;-17
2022/08/01 01:12:57;;;;;;;1.73;1.40;;;;;;;;;;7314376;19;153917;-16
2022/08/01 01:15:39;;;;;;;1.95;1.35;;;;;;;;;;7313231;19;162338;-16
2022/08/01 01:18:14;;;;;;;1.73;1.63;;;;;;;;;;7312005;19;163403;-17
2022/08/01 01:20:49;;;;;;;3.75;1.20;;;;;;;;;;7315140;19;154561;-22
2022/08/01 01:23:38;;;;;;;1.60;1.30;;;;;;;;;;7311957;19;154015;-17
2022/08/01 01:26:37;;;;;;;1.80;1.55;;;;;;;;;;7310071;19;162346;-17
2022/08/01 01:29:16;;;;;;;3.58;1.40;;;;;;;;;;7308269;19;163009;-17
2022/08/01 01:31:54;;;;;;;2.22;1.60;;;;;;;;;;7309369;19;154759;-17
2022/08/01 01:34:26;;;;;;;4.93;1.40;;;;;;;;;;7311380;19;153955;-17
2022/08/01 01:37:01;;;;;;;3.90;1.37;;;;;;;;;;7313154;19;162699;-17
2022/08/01 01:39:33;;;;;;;2.53;1.15;;;;;;;;;;7311452;19;162847;-18
2022/08/01 01:42:04;;;;;;;;;;;;;;;;;;7314918;19;154575;-16
2022/08/01 01:44:39;;;;;;;4.93;1.25;;;;;;;;;;7311976;19;153488;-17
2022/08/01 01:47:19;;;;;;;3.15;1.40;;;;;;;;;;7312970;19;162271;-17
2022/08/01 01:49:53;;;;;;;4.05;1.70;;;;;;;;;;7312482;19;162769;-16
2022/08/01 01:52:26;;;;;;;2.58;1.25;;;;;;;;;;7313998;19;154660;-18
2022/08/01 01:54:59;;;;;;;5.30;1.55;;;;;;;;;;7309147;19;154557;-16
2022/08/01 01:57:32;;;;;;;2.58;1.48;;;;;;;;;;7312399;19;162285;-16
2022/08/01 02:00:08;;;;;;;1.98;1.08;;;;;;;;;;7312702;19;162805;-18
2022/08/01 02:02:41;;;;;;;2.10;1.25;;;;;;;;;;7311846;19;154502;-17
2022/08/01 02:05:14;;;;;;;3.60;1.50;;;;;;;;;;7310167;19;154528;-17
2022/08/01 02:07:47;;;;;;;2.22;1.38;;;;;;;;;;7312237;19;162842;-16
2022/08/01 02:10:19;;;;;;;;;;;;;;;;;;7312523;19;163262;-16
2022/08/01 02:12:52;;;;;;;1.63;1.48;;;;;;;;;;7311769;19;154916;-17
2022/08/01 02:15:29;;;;;;;2.38;1.60;;;;;;;;;;7313672;19;154548;-17
2022/08/01 02:18:02;;;;;;;4.28;1.75;;;;;;;;;;7311241;19;162789;-16
2022/08/01 02:20:36;;;;;;;2.22;1.40;;;;;;;;;;7313369;19;163738;-18
2022/08/01 02:23:13;;;;;;;3.63;1.33;;;;;;;;;;7311744;19;154596;-16
2022/08/01 02:25:49;;;;;;;1.98;1.25;;;;;;;;;;7314182;19;154126;-16
2022/08/01 02:28:27;;;;;;;3.00;1.60;;;;;;;;;;7311323;19;163137;-16
2022/08/01 02:31:06;;;;;;;2.50;1.50;;;;;;;;;;7311754;19;163644;-16
2022/08/01 02:33:54;;;;;;;3.55;1.25;;;;;;;;;;7311311;19;155089;-17
2022/08/01 02:36:30;;;;;;;1.63;1.52;;;;;;;;;;7313878;19;154023;-16
2022/08/01 02:39:11;;;;;;;2.92;1.38;;;;;;;;;;7311468;19;162253;-17
2022/08/01 02:41:49;;;;;;;3.95;1.30;;;;;;;;;;7308531;19;162854;-16
2022/08/01 02:44:30;;;;;;;3.13;1.60;;;;;;;;;;7311533;19;154526;-15
2022/08/01 02:47:35;;;;;;;1.50;1.40;;;;;;;;;;7310864;19;153502;-15
2022/08/01 02:50:13;;;;;;;2.45;1.25;;;;;;;;;;7312344;19;162657;-20
2022/08/01 02:52:53;;;;;;;5.10;1.75;;;;;;;;;;7308511;19;162957;-15
2022/08/01 02:55:25;;;;;;;3.63;1.50;;;;;;;;;;7309064;19;155105;-17
2022/08/01 02:57:58;;;;;;;1.40;1.30;;;;;;;;;;7311213;19;154466;-16
2022/08/01 03:00:32;;;;;;;2.35;1.30;;;;;;;;;;7312756;19;162853;-16
2022/08/01 03:03:09;;;;;;;1.77;1.60;;;;;;;;;;7310276;19;162755;-16
2022/08/01 03:05:42;;;;;;;1.55;1.45;;;;;;;;;;7312940;19;154422;-16
2022/08/01 03:08:16;;;;;;;1.42;1.15;;;;;;;;;;7308697;19;154469;-16
2022/08/01 03:10:50;;;;;;;2.85;1.30;;;;;;;;;;7310454;19;162456;-16
2022/08/01 03:13:24;;;;;;;1.20;1.15;;;;;;;;;;7309673;19;162807;-16
2022/08/01 03:16:02;;;;;;;2.05;1.52;;;;;;;;;;7310696;19;154594;-15
2022/08/01 03:18:38;;;;;;;2.75;1.60;;;;;;;;;;7309919;19;154062;-16
2022/08/01 03:21:12;;;;;;;1.50;1.40;;;;;;;;;;7318722;19;162877;-17
2022/08/01 03:23:45;;;;;;;1.50;1.40;;;;;;;;;;7316353;19;162741;-15
2022/08/01 03:26:21;;;;;;;1.58;1.42;;;;;;;;;;7318943;19;154555;-16
2022/08/01 03:28:55;;;;;;;2.22;1.05;;;;;;;;;;7314387;19;154835;-16
2022/08/01 03:31:27;;;;;;;1.60;1.20;;;;;;;;;;7318194;19;162444;-16
2022/08/01 03:34:01;;;;;;;1.48;1.10;;;;;;;;;;7313897;19;163214;-15
2022/08/01 03:36:37;;;;;;;2.88;1.45;;;;;;;;;;7317660;19;154557;-16
2022/08/01 03:39:11;;;;;;;1.80;1.50;;;;;;;;;;7316573;19;154027;-16
2022/08/01 03:41:46;;;;;;;1.40;1.30;;;;;;;;;;7316535;19;162244;-16
2022/08/01 03:44:20;;;;;;;4.40;1.75;;;;;;;;;;7315555;19;162919;-16
2022/08/01 03:46:57;;;;;;;2.45;1.42;;;;;;;;;;7316786;19;154609;-15
2022/08/01 03:49:35;;;;;;;1.73;1.25;;;;;;;;;;7316339;19;153915;-16
2022/08/01 03:52:09;;;;;;;1.30;1.23;;;;;;;;;;7316908;19;162376;-16
2022/08/01 03:54:45;;;;;;;1.60;1.50;;;;;;;;;;7315048;19;163237;-17
2022/08/01 03:57:17;;;;;;;1.45;1.20;;;;;;;;;;7317177;19;154553;-16
2022/08/01 03:59:49;;;;;;;1.70;1.60;;;;;;;;;;7315651;19;153954;-16
2022/08/01 04:02:21;;;;;;;1.10;1.10;;;;;;;;;;7315540;19;162447;-16
2022/08/01 04:04:56;;;;;;;1.00;1.00;;;;;;;;;;7315423;19;163771;-17
2022/08/01 04:07:29;;;;;;;2.13;1.60;;;;;;;;;;7314388;19;154580;-17
2022/08/01 04:10:02;;;;;;;2.75;1.48;;;;;;;;;;7315956;19;154085;-17
2022/08/01 04:12:33;;;;;;;1.58;1.48;;;;;;;;;;7313551;19;164512;-17
2022/08/01 04:15:05;;;;;;;1.50;1.40;;;;;;;;;;7314150;19;162858;-16
2022/08/01 04:17:37;;;;;;;1.23;1.23;;;;;;;;;;7315961;19;155059;-16
2022/08/01 04:20:13;;;;;;;1.15;1.15;;;;;;;;;;7315546;19;154472;-16
2022/08/01 04:22:44;;;;;;;1.45;1.35;;;;;;;;;;7315619;19;162708;-16
2022/08/01 04:25:22;;;;;;;1.65;1.55;;;;;;;;;;7316039;19;162890;-16
2022/08/01 04:27:57;;;;;;;1.25;1.20;;;;;;;;;;7315853;19;154551;-16
2022/08/01 04:30:31;;;;;;;1.17;1.17;;;;;;;;;;7314361;19;154083;-16
2022/08/01 04:33:05;;;;;;;1.45;1.27;;;;;;;;;;7313773;19;162811;-16
2022/08/01 04:35:42;;;;;;;1.10;1.00;;;;;;;;;;7314744;19;163231;-19
2022/08/01 04:38:16;;;;;;;1.55;1.45;;;;;;;;;;7315279;19;154853;-16
2022/08/01 04:40:48;;;;;;;1.60;1.50;;;;;;;;;;7314747;19;153875;-18
2022/08/01 04:43:20;;;;;;;2.00;1.20;;;;;;;;;;7314066;19;162647;-16
2022/08/01 04:45:53;;;;;;;2.35;1.23;;;;;;;;;;7315005;19;162826;-15
2022/08/01 04:48:26;;;;;;;2.53;1.30;;;;;;;;;;7314821;19;154567;-16
2022/08/01 04:51:00;;;;;;;1.50;1.40;;;;;;;;;;7314298;19;154408;-17
2022/08/01 04:53:32;;;;;;;1.40;1.30;;;;;;;;;;7314784;19;162441;-16
2022/08/01 04:56:03;;;;;;;1.30;1.20;;;;;;;;;;7311807;19;162775;-15
2022/08/01 04:58:34;;;;;;;1.10;1.10;;;;;;;;;;7314305;19;154540;-16
2022/08/01 05:01:06;;;;;;;1.30;1.20;;;;;;;;;;7315899;19;153932;-18
2022/08/01 05:03:37;;;;;;;1.38;1.27;;;;;;;;;;7312012;19;162298;-15
2022/08/01 05:06:11;;;;;;;1.70;1.60;;;;;;;;;;7314362;19;162285;-15
2022/08/01 05:08:42;;;;;;;1.27;1.20;;;;;;;;;;7313626;19;155087;-15
2022/08/01 05:11:14;;;;;;;2.92;1.50;;;;;;;;;;7313224;19;154131;-16
2022/08/01 05:13:45;;;;;;;1.85;1.13;;;;;;;;;;7313786;19;162735;-16
2022/08/01 05:16:17;;;;;;;1.50;1.40;;;;;;;;;;7312871;19;163280;-17
2022/08/01 05:18:49;;;;;;;1.77;1.20;;;;;;;;;;7314292;19;156292;-17
2022/08/01 05:21:24;;;;;;;2.17;1.30;;;;;;;;;;7312835;19;153998;-17
2022/08/01 05:23:57;;;;;;;1.25;1.23;;;;;;;;;;7312246;19;162187;-16
2022/08/01 05:26:32;;;;;;;1.17;1.17;;;;;;;;;;7314254;19;163337;-18
2022/08/01 05:29:04;;;;;;;2.00;1.50;;;;;;;;;;7313881;19;155159;-17
2022/08/01 05:31:36;;;;;;;2.42;1.50;;;;;;;;;;7313536;19;153971;-16
2022/08/01 05:34:07;;;;;;;2.50;1.47;;;;;;;;;;7310883;19;162232;-16
2022/08/01 05:36:41;;;;;;;1.95;1.50;;;;;;;;;;7311139;19;162411;-17
2022/08/01 05:39:12;;;;;;;1.95;1.70;;;;;;;;;;7313373;19;154634;-16
2022/08/01 05:41:44;;;;;;;1.98;1.77;;;;;;;;;;7309918;19;154348;-16
2022/08/01 05:44:15;;;;;;;5.28;2.38;;;;;;;;;;7311199;19;161861;-16
2022/08/01 05:46:46;;;;;;;3.10;1.88;;;;;;;;;;7312533;19;162838;-16
2022/08/01 05:49:18;;;;;;;4.38;1.80;;;;;;;;;;7312306;19;154519;-16
2022/08/01 05:51:52;;;;;;;2.25;1.58;;;;;;;;;;7311953;19;153947;-17
2022/08/01 05:54:23;;;;;;;3.33;2.05;;;;;;;;;;7312654;19;162672;-16
2022/08/01 05:56:59;;;;;;;8.05;2.55;;;;;;;;;;7310060;19;163490;-16
2022/08/01 05:59:30;;;;;;;2.17;1.90;;;;;;;;;;7308831;19;155047;-16
2022/08/01 06:02:02;;;;;;;3.10;2.17;;;;;;;;;;7310270;19;154029;-16
2022/08/01 06:04:33;;;;;;;2.30;2.03;;;;;;;;;;7307959;19;162177;-16
2022/08/01 06:07:07;;;;;;;2.30;2.03;;;;;;;;;;7312108;19;162672;-16
2022/08/01 06:09:38;;;;;;;2.00;1.77;;;;;;;;;;7311065;19;154630;-17
2022/08/01 06:12:10;;;;;;;4.97;2.20;;;;;;;;;;7312288;19;154499;-15
2022/08/01 06:14:41;;;;;;;5.47;2.15;;;;;;;;;;7311851;19;162287;-15
2022/08/01 06:17:12;;;;;;;3.67;1.98;;;;;;;;;;7309764;19;163412;-15
2022/08/01 06:19:43;;;;;;;4.75;2.13;;;;;;;;;;7312072;19;154506;-16
2022/08/01 06:22:17;;;;;;;3.53;2.45;;;;;;;;;;7312471;19;153979;-16
2022/08/01 06:24:48;;;;;;;2.00;1.90;;;;;;;;;;7311642;19;162296;-16
2022/08/01 06:27:20;;;;;;;3.95;2.42;;;;;;;;;;7311424;19;163249;-16
2022/08/01 06:29:53;;;;;;;3.08;2.20;;;;;;;;;;7311601;19;155185;-16
2022/08/01 06:32:26;;;;;;;2.83;2.60;;;;;;;;;;7309524;19;154038;-16
2022/08/01 06:34:58;;;;;;;3.20;2.10;;;;;;;;;;7311276;19;162221;-16
2022/08/01 06:37:36;;;;;;;2.50;2.30;;;;;;;;;;7307253;19;163611;-16
2022/08/01 06:40:09;;;;;;;3.72;2.20;;;;;;;;;;7309676;19;155209;-18
2022/08/01 06:42:45;;;;;;;2.38;2.10;;;;;;;;;;7311195;19;154088;-17
2022/08/01 06:45:17;;;;;;;2.47;2.15;;;;;;;;;;7310767;19;162250;-18
2022/08/01 06:47:48;;;;;;;4.20;2.60;;;;;;;;;;7310485;19;162849;-17
2022/08/01 06:50:19;;;;;;;2.90;1.90;;;;;;;;;;7310584;19;154741;-16
2022/08/01 06:52:53;;;;;;;5.43;2.88;;;;;;;;;;7309129;19;154010;-16
2022/08/01 06:55:24;;;;;;;5.45;2.67;;;;;;;;;;7314426;19;162374;-15
2022/08/01 06:57:56;;;;;;;2.58;2.38;;;;;;;;;;7315681;19;162901;-16
2022/08/01 07:00:28;;;;;;;3.33;2.65;;;;;;;;;;7317715;19;154443;-16
2022/08/01 07:03:01;;;;;;;3.20;2.90;;;;;;;;;;7317402;19;153938;-16
2022/08/01 07:05:32;;;;;;;;;;;;;;;;;;7317692;19;162374;-16
2022/08/01 07:08:06;;;;;;;2.60;2.28;;;;;;;;;;7317491;19;162485;-16
2022/08/01 07:10:37;;;;;;;3.25;2.70;;;;;;;;;;7317905;19;154969;-16
2022/08/01 07:13:08;;;;;;;4.18;2.50;;;;;;;;;;7317621;19;154080;-16
2022/08/01 07:15:39;;;;;;;3.83;2.45;;;;;;;;;;7317006;19;162403;-15
2022/08/01 07:18:10;;;;;;;2.97;2.30;;;;;;;;;;7314776;19;163188;-14
2022/08/01 07:20:41;;;;;;;4.22;2.35;;;;;;;;;;7316390;19;154567;-16
2022/08/01 07:23:15;;;;;;;3.30;2.50;;;;;;;;;;7315910;19;154082;-14
2022/08/01 07:25:48;;;;;;;2.20;2.00;;;;;;;;;;7316924;19;162294;-16
2022/08/01 07:28:19;;;;;;;3.35;2.30;;;;;;;;;;7316530;19;163220;-18
2022/08/01 07:30:51;;;;;;;3.10;2.25;;;;;;;;;;7316953;19;154539;-16
2022/08/01 07:33:22;;;;;;;3.58;2.55;;;;;;;;;;7315554;19;154008;-16
2022/08/01 07:35:53;;;;;;;3.78;2.50;;;;;;;;;;7316567;19;162265;-15
2022/08/01 07:38:27;;;;;;;3.95;2.60;;;;;;;;;;7314776;19;163259;-16
2022/08/01 07:40:58;;;;;;;2.72;2.42;;;;;;;;;;7316667;19;154898;-16
2022/08/01 07:43:29;;;;;;;5.88;2.65;;;;;;;;;;7316720;19;153926;-17
2022/08/01 07:46:01;;;;;;;3.83;2.72;;;;;;;;;;7316294;19;162216;-15
2022/08/01 07:48:32;;;;;;;4.20;2.72;;;;;;;;;;7316330;19;162365;-15
2022/08/01 07:51:03;;;;;;;3.28;2.53;;;;;;;;;;7315317;19;154650;-16
2022/08/01 07:53:37;;;;;;;5.35;2.70;;;;;;;;;;7316312;19;154305;-16
2022/08/01 07:56:09;;;;;;;2.85;2.55;;;;;;;;;;7315901;19;162618;-15
2022/08/01 07:58:40;;;;;;;3.08;2.70;;;;;;;;;;7313657;19;162850;-16
2022/08/01 08:01:11;;;;;;;3.55;2.42;;;;;;;;;;7316681;19;154553;-17
2022/08/01 08:03:43;;;;;;;3.42;2.58;;;;;;;;;;7315885;19;153976;-16
2022/08/01 08:06:14;;;;;;;4.47;2.95;;;;;;;;;;7314410;19;162648;-17
2022/08/01 08:08:48;;;;;;;3.22;2.75;;;;;;;;;;7315699;19;163286;-17
2022/08/01 08:11:23;;;;;;;5.65;2.90;;;;;;;;;;7316541;19;155061;-17
2022/08/01 08:13:54;;;;;;;6.95;2.92;;;;;;;;;;7314323;19;154058;-16
2022/08/01 08:16:26;;;;;;;4.38;3.03;;;;;;;;;;7315453;19;162743;-17
2022/08/01 08:18:57;;;;;;;3.97;2.92;;;;;;;;;;7313323;19;162302;-16
2022/08/01 08:21:30;;;;;;;4.53;2.30;;;;;;;;;;7315989;19;154519;-17
2022/08/01 08:26:47;;;;;;;3.70;3.13;;;;;;;;;;7315105;19;162632;-16
2022/08/01 08:29:20;;;;;;;4.85;3.15;;;;;;;;;;7313709;19;162966;-16
2022/08/01 08:31:51;;;;;;;3.92;2.88;;;;;;;;;;7315346;19;155198;-17
2022/08/01 08:34:23;;;;;;;5.05;3.50;;;;;;;;;;7312698;19;154058;-16
2022/08/01 08:36:55;;;;;;;5.05;3.10;;;;;;;;;;7314880;19;162981;-16
2022/08/01 08:39:29;;;;;;;7.35;3.20;;;;;;;;;;7312377;19;163209;-16
2022/08/01 08:42:02;;;;;;;4.32;3.00;;;;;;;;;;7315336;19;154413;-16
2022/08/01 08:44:33;;;;;;;6.03;3.28;;;;;;;;;;7315192;19;154507;-17
2022/08/01 08:47:07;;;;;;;5.85;3.47;;;;;;;;;;7314748;19;161813;-16
2022/08/01 08:49:39;;;;;;;5.50;3.03;;;;;;;;;;7314568;19;162803;-16
2022/08/01 08:52:11;;;;;;;6.63;2.93;;;;;;;;;;7315350;19;154527;-16
2022/08/01 08:54:45;;;;;;;4.87;3.17;;;;;;;;;;7314611;19;154084;-17
2022/08/01 08:57:17;;;;;;;4.80;3.15;;;;;;;;;;7314606;19;162695;-17
2022/08/01 08:59:51;;;;;;;4.50;2.80;;;;;;;;;;7311750;19;162791;-16
2022/08/01 09:02:23;;;;;;;5.22;2.85;;;;;;;;;;7314776;19;154901;-16
2022/08/01 09:04:54;;;;;;;3.45;2.70;;;;;;;;;;7314668;19;153975;-15
2022/08/01 09:07:26;;;;;;;5.10;2.70;;;;;;;;;;7314112;19;162320;-16
2022/08/01 09:09:59;;;;;;;4.78;3.05;;;;;;;;;;7313926;19;162802;-15
2022/08/01 09:12:30;;;;;;;5.15;3.22;;;;;;;;;;7312603;19;154603;-16
2022/08/01 09:15:02;;;;;;;7.15;3.92;;;;;;;;;;7314217;19;154179;-17
2022/08/01 09:17:42;;;;;;;3.70;3.17;;;;;;;;;;7311434;19;162796;-17
2022/08/01 09:20:27;;;;;;;6.00;3.05;;;;;;;;;;7314232;19;162750;-16
2022/08/01 09:22:58;;;;;;;3.45;3.15;;;;;;;;;;7313680;19;154624;-17
2022/08/01 09:25:35;;;;;;;5.18;3.25;;;;;;;;;;7313993;19;154502;-16
2022/08/01 09:28:08;;;;;;;5.07;3.42;;;;;;;;;;7313632;19;162219;-16
2022/08/01 09:30:42;;;;;;;4.50;3.70;;;;;;;;;;7313390;19;162778;-16
2022/08/01 09:33:13;;;;;;;6.05;3.83;;;;;;;;;;7310353;19;155151;-16
2022/08/01 09:35:45;;;;;;;5.43;3.35;;;;;;;;;;7313565;19;154020;-16
2022/08/01 09:38:18;;;;;;;6.50;3.80;;;;;;;;;;7312209;19;162388;-15
2022/08/01 09:40:54;;;;;;;8.05;4.07;;;;;;;;;;7311472;19;163043;-15
2022/08/01 09:43:27;;;;;;;6.55;4.00;;;;;;;;;;7313325;19;154955;-16
2022/08/01 09:45:59;;;;;;;5.20;3.85;;;;;;;;;;7313313;19;154646;-15
2022/08/01 09:48:32;;;;;;;7.47;4.50;;;;;;;;;;7312733;19;162258;-16
2022/08/01 09:51:03;;;;;;;6.85;3.75;;;;;;;;;;7313231;19;162733;-16
2022/08/01 09:53:45;;;;;;;5.00;3.63;;;;;;;;;;7313198;19;154465;-16
2022/08/01 09:56:19;;;;;;;5.43;3.70;;;;;;;;;;7313267;19;155205;-15
2022/08/01 09:58:55;;;;;;;6.50;4.00;;;;;;;;;;7311519;19;162780;-16
2022/08/01 10:01:29;;;;;;;7.15;4.10;;;;;;;;;;7310545;19;163354;-16
2022/08/01 10:04:08;;;;;;;5.93;4.55;;;;;;;;;;7312372;19;155138;-16
2022/08/01 10:06:40;;;;;;;6.32;3.90;;;;;;;;;;7312628;19;153974;-16
2022/08/01 10:09:11;;;;;;;7.50;3.93;;;;;;;;;;7312421;19;162270;-16
2022/08/01 10:11:46;;;;;;;9.77;4.43;;;;;;;;;;7312271;19;162755;-16
2022/08/01 10:14:19;;;;;;;6.82;4.22;;;;;;;;;;7312469;19;154456;-16
2022/08/01 10:16:53;;;;;;;7.65;4.15;;;;;;;;;;7312536;19;153941;-16
2022/08/01 10:19:25;;;;;;;8.63;4.68;;;;;;;;;;7310724;19;162739;-19
2022/08/01 10:21:58;;;;;;;6.63;4.70;;;;;;;;;;7312065;19;163160;-18
2022/08/01 10:24:32;;;;;;;9.32;4.57;;;;;;;;;;7312185;19;154547;-18
2022/08/01 10:27:09;;;;;;;7.18;5.30;;;;;;;;;;7312371;19;153931;-16
2022/08/01 10:29:45;;;;;;;7.10;4.60;;;;;;;;;;7309336;19;162263;-15
2022/08/01 10:32:18;;;;;;;8.90;4.85;;;;;;;;;;7311079;19;163188;-17
2022/08/01 10:34:52;;;;;;;9.27;5.40;;;;;;;;;;7311906;19;154879;-16
2022/08/01 10:37:23;;;;;;;9.35;4.97;;;;;;;;;;7310442;19;153953;-16
2022/08/01 10:39:56;;;;;;;6.80;4.93;;;;;;;;;;7309511;19;162783;-15
2022/08/01 10:42:42;;;;;;;7.72;5.00;;;;;;;;;;7311261;19;162819;-16
2022/08/01 10:45:15;;;;;;;7.57;5.10;;;;;;;;;;7311598;19;154573;-16
2022/08/01 10:47:52;;;;;;;8.10;5.00;;;;;;;;;;7311257;19;154633;-16
2022/08/01 10:50:34;;;;;;;8.02;5.13;;;;;;;;;;7310968;19;162248;-16
2022/08/01 10:53:18;;;;;;;8.63;5.18;;;;;;;;;;7310990;19;162752;-16
2022/08/01 10:55:51;;;;;;;7.30;4.60;;;;;;;;;;7309655;19;154516;-15
2022/08/01 10:58:32;;;;;;;7.32;4.43;;;;;;;;;;7311238;19;154124;-15
2022/08/01 11:01:21;;;;;;;8.02;4.43;;;;;;;;;;7306110;19;162680;-15
2022/08/01 11:04:10;;;;;;;5.45;4.65;;;;;;;;;;7308490;19;162900;-16
2022/08/01 11:06:55;;;;;;;8.80;4.88;;;;;;;;;;7309765;19;154562;-15
2022/08/01 11:09:30;;;;;;;18.05;5.00;;;;;;;;;;7310356;19;153970;-16
2022/08/01 11:12:06;;;;;;;9.75;4.88;;;;;;;;;;7310414;19;162151;-16
2022/08/01 11:15:12;;;;;;;15.38;5.07;;;;;;;;;;7309861;19;162807;-19
2022/08/01 11:17:47;;;;;;;;;;;;;;;;;;7308870;19;154553;-16
2022/08/01 11:20:20;;;;;;;8.13;4.57;;;;;;;;;;7309528;19;153888;-16
2022/08/01 11:23:18;;;;;;;7.50;4.22;;;;;;;;;;7308446;19;162599;-16
2022/08/01 11:26:22;;;;;;;6.38;4.13;;;;;;;;;;7307319;19;164070;-17
2022/08/01 11:29:19;;;;;;;8.13;4.55;;;;;;;;;;7308535;19;154590;-16
2022/08/01 11:31:52;;;;;;;8.55;4.15;;;;;;;;;;7309293;19;154021;-17
2022/08/01 11:34:57;;;;;;;8.25;4.90;;;;;;;;;;7305298;19;162608;-16
2022/08/01 11:37:29;;;;;;;7.97;4.43;;;;;;;;;;7307452;19;163310;-20
2022/08/01 11:40:28;;;;;;;8.93;4.03;;;;;;;;;;7309771;19;155057;-16
2022/08/01 11:43:20;;;;;;;8.60;4.85;;;;;;;;;;7314217;19;154102;-17
2022/08/01 11:45:54;;;;;;;9.15;4.43;;;;;;;;;;7314767;19;162264;-17
2022/08/01 11:48:27;;;;;;;6.88;3.67;;;;;;;;;;7315673;19;163313;-16
2022/08/01 11:51:01;;;;;;;8.93;4.85;;;;;;;;;;7316400;19;155162;-16
2022/08/01 11:53:33;;;;;;;7.88;4.07;;;;;;;;;;7316097;19;154365;-17
2022/08/01 11:56:05;;;;;;;5.23;4.10;;;;;;;;;;7315849;19;162859;-16
2022/08/01 11:58:36;;;;;;;6.68;4.47;;;;;;;;;;7314850;19;163205;-16
2022/08/01 12:01:07;;;;;;;9.70;4.72;;;;;;;;;;7312859;19;154512;-16
2022/08/01 12:03:38;;;;;;;8.68;4.43;;;;;;;;;;7315220;19;153873;-16
2022/08/01 12:06:13;;;;;;;7.07;3.90;;;;;;;;;;7316396;19;163015;-17
2022/08/01 12:08:44;;;;;;;5.90;4.30;;;;;;;;;;7314125;19;163530;-16
2022/08/01 12:11:15;;;;;;;6.82;4.60;;;;;;;;;;7315403;19;154558;-17
2022/08/01 12:13:47;;;;;;;6.93;4.15;;;;;;;;;;7315444;19;154605;-16
2022/08/01 12:16:19;;;;;;;7.45;4.20;;;;;;;;;;7314594;19;162229;-16
2022/08/01 12:18:50;;;;;;;5.30;4.30;;;;;;;;;;7314749;19;163246;-16
2022/08/01 12:21:24;;;;;;;6.25;4.00;;;;;;;;;;7313563;19;154519;-16
2022/08/01 12:24:03;;;;;;;7.18;5.05;;;;;;;;;;7314995;19;154595;-16
2022/08/01 12:26:44;;;;;;;6.38;4.57;;;;;;;;;;7314641;19;162728;-16
2022/08/01 12:29:34;;;;;;;6.63;4.35;;;;;;;;;;7314939;19;162757;-16
2022/08/01 12:32:06;;;;;;;9.80;4.50;;;;;;;;;;7314363;19;154910;-16
2022/08/01 12:34:37;;;;;;;5.28;4.78;;;;;;;;;;7312977;19;154034;-16
2022/08/01 12:37:11;;;;;;;8.68;4.72;;;;;;;;;;7314517;19;162274;-15
2022/08/01 12:39:43;;;;;;;5.25;4.05;;;;;;;;;;7314234;19;163220;-16
2022/08/01 12:42:15;;;;;;;7.15;4.97;;;;;;;;;;7311986;19;154514;-17
2022/08/01 12:44:56;;;;;;;5.65;4.35;;;;;;;;;;7317800;19;153958;-17
2022/08/01 12:47:28;;;;;;;5.55;4.55;;;;;;;;;;7314297;19;162145;-17
2022/08/01 12:49:59;;;;;;;7.05;4.50;;;;;;;;;;7313537;19;162827;-16
2022/08/01 12:52:34;;;;;;;8.23;4.75;;;;;;;;;;7313931;19;154619;-15
2022/08/01 12:55:11;;;;;;;7.80;4.70;;;;;;;;;;7314793;19;154431;-16
2022/08/01 12:57:44;;;;;;;5.65;4.15;;;;;;;;;;7312349;19;162700;-16
2022/08/01 13:00:21;;;;;;;7.85;4.82;;;;;;;;;;7312390;19;163312;-16
2022/08/01 13:03:05;;;;;;;8.93;4.90;;;;;;;;;;7314032;19;155097;-16
2022/08/01 13:05:48;;;;;;;6.57;4.63;;;;;;;;;;7314045;19;153917;-16
2022/08/01 13:08:23;;;;;;;6.63;4.53;;;;;;;;;;7313756;19;162331;-16
2022/08/01 13:11:04;;;;;;;7.85;5.07;;;;;;;;;;7313827;19;162541;-19
2022/08/01 13:13:42;;;;;;;5.55;4.63;;;;;;;;;;7312547;19;154639;-16
2022/08/01 13:16:13;;;;;;;5.88;4.72;;;;;;;;;;7313813;19;154508;-17
2022/08/01 13:18:52;;;;;;;6.93;4.07;;;;;;;;;;7313542;19;162629;-18
2022/08/01 13:21:25;;;;;;;8.32;4.78;;;;;;;;;;7312199;19;162741;-19
2022/08/01 13:24:10;;;;;;;5.38;4.35;;;;;;;;;;7312131;19;155132;-15
2022/08/01 13:26:43;;;;;;;10.07;4.95;;;;;;;;;;7313484;19;153927;-16
2022/08/01 13:29:16;;;;;;;7.65;4.53;;;;;;;;;;7313546;19;162619;-17
2022/08/01 13:31:48;;;;;;;9.93;4.60;;;;;;;;;;7312428;19;163463;-16
2022/08/01 13:34:19;;;;;;;6.53;4.80;;;;;;;;;;7309520;19;155056;-16
2022/08/01 13:36:53;;;;;;;7.53;4.47;;;;;;;;;;7313521;19;154208;-16
2022/08/01 13:42:12;;;;;;;5.68;4.40;;;;;;;;;;7311282;19;162942;-15
2022/08/01 13:44:45;;;;;;;7.35;4.28;;;;;;;;;;7314840;19;155005;-18
2022/08/01 13:47:17;;;;;;;11.10;4.70;;;;;;;;;;7312769;19;154630;-16
2022/08/01 13:49:48;;;;;;;7.17;4.63;;;;;;;;;;7312946;19;162303;-16
2022/08/01 13:52:19;;;;;;;6.70;4.40;;;;;;;;;;7312559;19;163764;-15
2022/08/01 13:54:53;;;;;;;8.98;3.88;;;;;;;;;;7312918;19;154508;-15
2022/08/01 13:57:29;;;;;;;10.95;4.55;;;;;;;;;;7312856;19;154030;-16
2022/08/01 14:00:12;;;;;;;6.75;4.85;;;;;;;;;;7310884;19;162332;-15
2022/08/01 14:02:43;;;;;;;;;;;;;;;;;;7308992;19;163040;-16
2022/08/01 14:05:14;;;;;;;6.78;5.43;;;;;;;;;;7312344;19;154524;-16
2022/08/01 14:07:45;;;;;;;6.82;4.80;;;;;;;;;;7310715;19;154033;-16
2022/08/01 14:10:19;;;;;;;4.97;4.13;;;;;;;;;;7311542;19;162344;-15
2022/08/01 14:12:50;;;;;;;5.13;4.30;;;;;;;;;;7311749;19;162739;-16
2022/08/01 14:15:22;;;;;;;6.30;4.53;;;;;;;;;;7312171;19;154505;-16
2022/08/01 14:17:53;;;;;;;8.20;4.38;;;;;;;;;;7311956;19;154215;-16
2022/08/01 14:20:24;;;;;;;7.03;4.13;;;;;;;;;;7311607;19;162695;-16
2022/08/01 14:23:06;;;;;;;6.00;4.13;;;;;;;;;;7309029;19;163226;-19
2022/08/01 14:26:04;;;;;;;8.90;4.50;;;;;;;;;;7311011;19;155413;-17
2022/08/01 14:28:46;;;;;;;6.63;4.18;;;;;;;;;;7311953;19;154489;-18
2022/08/01 14:31:44;;;;;;;9.52;4.40;;;;;;;;;;7310837;19;161819;-16
2022/08/01 14:34:18;;;;;;;4.50;3.83;;;;;;;;;;7306816;19;162899;-18
2022/08/01 14:36:49;;;;;;;4.90;4.40;;;;;;;;;;7311341;19;154674;-17
2022/08/01 14:39:20;;;;;;;6.43;4.05;;;;;;;;;;7309718;19;153955;-16
2022/08/01 14:41:54;;;;;;;6.32;4.28;;;;;;;;;;7309951;19;163277;-15
2022/08/01 14:44:25;;;;;;;6.60;3.95;;;;;;;;;;7310389;19;164637;-15
2022/08/01 14:46:57;;;;;;;5.97;4.15;;;;;;;;;;7311039;19;155047;-16
2022/08/01 14:49:28;;;;;;;7.93;3.80;;;;;;;;;;7310464;19;154680;-15
2022/08/01 14:52:00;;;;;;;8.50;4.20;;;;;;;;;;7310625;19;162198;-15
2022/08/01 14:54:31;;;;;;;4.75;4.25;;;;;;;;;;7310398;19;163553;-15
2022/08/01 14:57:05;;;;;;;7.65;3.95;;;;;;;;;;7310941;19;154476;-16
2022/08/01 14:59:36;;;;;;;6.50;4.50;;;;;;;;;;7310680;19;154068;-16
2022/08/01 15:02:10;;;;;;;5.18;3.95;;;;;;;;;;7309479;19;162843;-16
2022/08/01 15:04:41;;;;;;;5.97;4.13;;;;;;;;;;7310058;19;163373;-17
2022/08/01 15:07:13;;;;;;;4.03;3.63;;;;;;;;;;7310374;19;154524;-16
2022/08/01 15:09:47;;;;;;;6.15;3.80;;;;;;;;;;7310568;19;154442;-17
2022/08/01 15:12:21;;;;;;;7.03;4.22;;;;;;;;;;7309902;19;162666;-15
2022/08/01 15:14:53;;;;;;;4.32;3.80;;;;;;;;;;7310650;19;163364;-15
2022/08/01 15:17:28;;;;;;;6.07;4.30;;;;;;;;;;7315850;19;154870;-15
2022/08/01 15:20:01;;;;;;;5.68;4.00;;;;;;;;;;7315608;19;154041;-15